Time,TemperatureF,DewpointF,PressureIn,WindDirection,WindDirectionDegrees,WindSpeedMPH,WindSpeedGustMPH,Humidity,HourlyPrecipIn,Conditions,Clouds,dailyrainin,SoftwareType,DateUTC
2013-01-01 00:00:00,40.5,30.0,27.93,SSE,158,0.0,0.0,66,0.00,,---,0.00,VWS V14.01,2013-01-01 05:00:00,
2013-01-01 00:01:00,40.5,30.0,27.93,SSE,158,0.9,2.2,66,0.00,,---,0.00,VWS V14.01,2013-01-01 05:01:00,
2013-01-01 00:06:00,40.5,30.0,27.93,SSE,158,0.0,0.0,66,0.00,,---,0.00,VWS V14.01,2013-01-01 05:06:00,
2013-01-01 00:11:00,40.3,29.5,27.93,SSE,158,0.0,0.0,65,0.00,,---,0.00,VWS V14.01,2013-01-01 05:11:00,
2013-01-01 00:16:00,40.3,29.8,27.93,SE,135,0.0,1.6,66,0.00,,---,0.00,VWS V14.01,2013-01-01 05:16:00,
2013-01-01 00:21:00,40.3,30.2,27.93,East,90,1.1,1.6,67,0.00,,---,0.00,VWS V14.01,2013-01-01 05:21:00,
2013-01-01 00:26:00,40.3,30.2,27.93,SE,135,0.0,0.0,67,0.00,,---,0.00,VWS V14.01,2013-01-01 05:26:00,
2013-01-01 00:32:00,40.3,29.8,27.93,SE,135,0.0,0.0,66,0.00,,---,0.00,VWS V14.01,2013-01-01 05:32:00,
2013-01-01 00:37:00,40.3,30.2,27.93,South,180,0.0,0.0,67,0.00,,---,0.00,VWS V14.01,2013-01-01 05:37:00,
2013-01-01 00:42:00,40.3,30.2,27.93,SSE,158,0.0,0.0,67,0.00,,---,0.00,VWS V14.01,2013-01-01 05:42:00,
2013-01-01 00:47:00,40.5,30.4,27.93,ESE,112,0.0,0.0,67,0.00,,---,0.00,VWS V14.01,2013-01-01 05:47:00,
2013-01-01 00:52:00,40.5,30.4,27.93,ESE,112,0.0,0.9,67,0.00,,---,0.00,VWS V14.01,2013-01-01 05:52:00,
2013-01-01 00:57:00,40.5,30.8,27.93,West,270,0.0,0.0,68,0.00,,---,0.00,VWS V14.01,2013-01-01 05:57:00,
2013-01-01 01:02:00,40.5,30.8,27.93,West,270,0.0,0.0,68,0.00,,---,0.00,VWS V14.01,2013-01-01 06:02:00,
2013-01-01 01:07:00,40.5,31.1,27.93,ESE,112,0.0,0.0,69,0.00,,---,0.00,VWS V14.01,2013-01-01 06:07:00,
2013-01-01 01:12:00,40.5,31.5,27.93,SSE,158,0.0,0.0,70,0.00,,---,0.00,VWS V14.01,2013-01-01 06:12:00,
2013-01-01 01:17:00,40.6,32.0,27.93,East,90,0.0,0.0,71,0.00,,---,0.00,VWS V14.01,2013-01-01 06:17:00,
2013-01-01 01:22:00,40.6,32.0,27.90,SSW,202,0.0,0.0,71,0.00,,---,0.00,VWS V14.01,2013-01-01 06:22:00,
2013-01-01 01:27:00,40.6,32.0,27.90,SSW,202,0.9,0.9,71,0.00,,---,0.00,VWS V14.01,2013-01-01 06:27:00,
2013-01-01 01:32:00,40.8,32.2,27.90,SSE,158,0.0,0.0,71,0.00,,---,0.00,VWS V14.01,2013-01-01 06:32:00,
2013-01-01 01:37:00,41.0,32.7,27.90,SSE,158,0.0,0.0,72,0.00,,---,0.00,VWS V14.01,2013-01-01 06:37:00,
2013-01-01 01:42:00,41.2,33.2,27.90,East,90,0.0,0.0,73,0.00,,---,0.00,VWS V14.01,2013-01-01 06:42:00,
2013-01-01 01:47:00,41.4,33.7,27.90,SSE,158,0.0,0.0,74,0.00,,---,0.00,VWS V14.01,2013-01-01 06:47:00,
2013-01-01 01:52:00,41.5,33.9,27.90,SE,135,0.0,0.9,74,0.00,,---,0.00,VWS V14.01,2013-01-01 06:52:00,
2013-01-01 01:57:00,41.5,34.2,27.90,SE,135,0.0,0.0,75,0.00,,---,0.00,VWS V14.01,2013-01-01 06:57:00,
2013-01-01 02:02:00,41.5,34.2,27.93,West,270,0.0,0.0,75,0.00,,---,0.00,VWS V14.01,2013-01-01 07:02:00,
2013-01-01 02:07:00,41.2,34.5,27.93,WSW,248,0.0,0.0,77,0.00,,---,0.00,VWS V14.01,2013-01-01 07:07:00,
2013-01-01 02:12:00,41.2,34.8,27.93,SSW,202,0.0,0.0,78,0.00,,---,0.00,VWS V14.01,2013-01-01 07:12:00,
2013-01-01 02:17:00,41.5,35.5,27.93,SE,135,0.0,0.0,79,0.00,,---,0.00,VWS V14.01,2013-01-01 07:17:00,
2013-01-01 02:22:00,41.9,36.2,27.93,SSE,158,0.0,2.7,80,0.00,,---,0.00,VWS V14.01,2013-01-01 07:22:00,
2013-01-01 02:27:00,42.1,37.0,27.93,South,180,1.1,1.1,82,0.00,,---,0.00,VWS V14.01,2013-01-01 07:27:00,
2013-01-01 02:32:00,42.3,37.2,27.93,South,180,0.0,0.0,82,0.00,,---,0.00,VWS V14.01,2013-01-01 07:32:00,
2013-01-01 02:37:00,42.1,37.0,27.93,South,180,0.0,0.0,82,0.00,,---,0.00,VWS V14.01,2013-01-01 07:37:00,
2013-01-01 02:43:00,42.3,37.5,27.93,SW,225,0.0,0.0,83,0.00,,---,0.00,VWS V14.01,2013-01-01 07:43:00,
2013-01-01 02:48:00,42.3,38.1,27.90,SSE,158,0.0,0.9,85,0.00,,---,0.00,VWS V14.01,2013-01-01 07:48:00,
2013-01-01 02:53:00,42.4,38.6,27.90,ESE,112,0.0,1.1,86,0.00,,---,0.00,VWS V14.01,2013-01-01 07:53:00,
2013-01-01 02:58:00,42.4,38.3,27.90,SSE,158,0.0,0.0,85,0.00,,---,0.00,VWS V14.01,2013-01-01 07:58:00,
2013-01-01 03:03:00,42.4,38.6,27.90,SSW,202,0.0,0.0,86,0.00,,---,0.00,VWS V14.01,2013-01-01 08:03:00,
2013-01-01 03:08:00,42.8,39.2,27.90,SSW,202,1.1,1.1,87,0.00,,---,0.00,VWS V14.01,2013-01-01 08:08:00,
2013-01-01 03:13:00,43.0,39.4,27.90,SSE,158,0.0,0.0,87,0.00,,---,0.00,VWS V14.01,2013-01-01 08:13:00,
2013-01-01 03:18:00,43.0,39.7,27.90,SSE,158,0.0,0.9,88,0.00,,---,0.00,VWS V14.01,2013-01-01 08:18:00,
2013-01-01 03:23:00,43.2,39.8,27.90,SE,135,0.0,0.0,88,0.00,,---,0.00,VWS V14.01,2013-01-01 08:23:00,
2013-01-01 03:28:00,43.3,40.0,27.90,SSW,202,0.9,0.9,88,0.00,,---,0.00,VWS V14.01,2013-01-01 08:28:00,
2013-01-01 03:33:00,43.3,40.3,27.90,WSW,248,2.2,2.2,89,0.00,,---,0.00,VWS V14.01,2013-01-01 08:33:00,
2013-01-01 03:38:00,43.5,40.8,27.90,SSW,202,1.1,2.9,90,0.00,,---,0.00,VWS V14.01,2013-01-01 08:38:00,
2013-01-01 03:44:00,43.5,40.8,27.90,South,180,0.0,2.5,90,0.00,,---,0.00,VWS V14.01,2013-01-01 08:44:00,
2013-01-01 03:49:00,43.3,40.6,27.90,WSW,248,0.0,0.0,90,0.00,,---,0.00,VWS V14.01,2013-01-01 08:49:00,
2013-01-01 03:54:00,43.3,40.6,27.90,SW,225,1.1,1.6,90,0.00,,---,0.00,VWS V14.01,2013-01-01 08:54:00,
2013-01-01 03:59:00,43.5,41.3,27.90,West,270,1.1,1.6,92,0.00,,---,0.00,VWS V14.01,2013-01-01 08:59:00,
2013-01-01 04:04:00,43.7,41.8,27.90,WSW,248,0.0,3.1,93,0.00,,---,0.00,VWS V14.01,2013-01-01 09:04:00,
2013-01-01 04:09:00,43.7,41.8,27.90,WSW,248,0.0,2.0,93,0.00,,---,0.00,VWS V14.01,2013-01-01 09:09:00,
2013-01-01 04:14:00,43.7,42.1,27.90,SSW,202,0.0,1.1,94,0.00,,---,0.00,VWS V14.01,2013-01-01 09:14:00,
2013-01-01 04:19:00,43.7,42.1,27.90,NNW,338,0.0,0.0,94,0.00,,---,0.00,VWS V14.01,2013-01-01 09:19:00,
2013-01-01 04:24:00,43.7,42.1,27.90,WSW,248,0.0,0.0,94,0.00,,---,0.00,VWS V14.01,2013-01-01 09:24:00,
2013-01-01 04:29:00,43.5,41.9,27.90,NNE,22,0.0,0.0,94,0.00,,---,0.00,VWS V14.01,2013-01-01 09:29:00,
2013-01-01 04:34:00,43.5,41.9,27.93,North,0,0.0,0.0,94,0.00,,---,0.00,VWS V14.01,2013-01-01 09:34:00,
2013-01-01 04:39:00,43.5,41.9,27.93,West,270,0.0,0.0,94,0.00,,---,0.00,VWS V14.01,2013-01-01 09:39:00,
2013-01-01 04:44:00,43.5,41.9,27.93,WNW,292,0.0,0.0,94,0.00,,---,0.00,VWS V14.01,2013-01-01 09:44:00,
2013-01-01 04:49:00,43.5,41.9,27.90,WSW,248,0.0,0.9,94,0.00,,---,0.00,VWS V14.01,2013-01-01 09:49:00,
2013-01-01 04:54:00,43.7,42.1,27.90,WSW,248,1.3,1.6,94,0.00,,---,0.00,VWS V14.01,2013-01-01 09:54:00,
2013-01-01 04:59:00,43.7,42.1,27.90,WSW,248,0.0,1.1,94,0.00,,---,0.00,VWS V14.01,2013-01-01 09:59:00,
2013-01-01 05:05:00,43.9,42.5,27.93,WNW,292,0.0,0.0,95,0.00,,---,0.00,VWS V14.01,2013-01-01 10:05:00,
2013-01-01 05:10:00,43.9,42.5,27.93,East,90,0.0,0.9,95,0.00,,---,0.00,VWS V14.01,2013-01-01 10:10:00,
2013-01-01 05:15:00,43.9,42.5,27.93,WSW,248,0.0,0.0,95,0.00,,---,0.00,VWS V14.01,2013-01-01 10:15:00,
2013-01-01 05:20:00,43.9,42.5,27.90,WNW,292,0.0,0.0,95,0.00,,---,0.00,VWS V14.01,2013-01-01 10:20:00,
2013-01-01 05:25:00,43.9,42.8,27.90,SSE,158,0.0,0.0,96,0.00,,---,0.00,VWS V14.01,2013-01-01 10:25:00,
2013-01-01 05:30:00,43.7,42.6,27.90,WSW,248,2.2,2.2,96,0.00,,---,0.00,VWS V14.01,2013-01-01 10:30:00,
2013-01-01 05:35:00,43.7,42.6,27.93,WSW,248,0.0,0.0,96,0.00,,---,0.00,VWS V14.01,2013-01-01 10:35:00,
2013-01-01 05:40:00,43.7,42.6,27.93,WNW,292,0.0,0.0,96,0.00,,---,0.00,VWS V14.01,2013-01-01 10:40:00,
2013-01-01 05:45:00,43.5,42.5,27.93,NE,45,0.0,1.6,96,0.00,,---,0.00,VWS V14.01,2013-01-01 10:45:00,
2013-01-01 05:50:00,43.5,42.5,27.93,NE,45,0.0,0.9,96,0.00,,---,0.00,VWS V14.01,2013-01-01 10:50:00,
2013-01-01 05:55:00,43.5,42.5,27.93,SW,225,0.0,1.6,96,0.00,,---,0.00,VWS V14.01,2013-01-01 10:55:00,
2013-01-01 06:00:00,43.5,42.5,27.93,WNW,292,0.9,0.9,96,0.00,,---,0.00,VWS V14.01,2013-01-01 11:00:00,
2013-01-01 06:05:00,43.5,42.5,27.93,West,270,0.0,0.0,96,0.00,,---,0.00,VWS V14.01,2013-01-01 11:05:00,
2013-01-01 06:10:00,43.5,42.5,27.93,WSW,248,0.0,0.0,96,0.00,,---,0.00,VWS V14.01,2013-01-01 11:10:00,
2013-01-01 06:15:00,43.5,42.5,27.93,SSW,202,0.9,0.9,96,0.00,,---,0.00,VWS V14.01,2013-01-01 11:15:00,
2013-01-01 06:20:00,43.5,42.5,27.93,WSW,248,0.0,0.0,96,0.00,,---,0.00,VWS V14.01,2013-01-01 11:20:00,
2013-01-01 06:26:00,43.5,42.5,27.93,WSW,248,0.0,0.0,96,0.00,,---,0.00,VWS V14.01,2013-01-01 11:26:00,
2013-01-01 06:31:00,43.5,42.5,27.93,North,0,0.0,1.3,96,0.00,,---,0.00,VWS V14.01,2013-01-01 11:31:00,
2013-01-01 06:36:00,43.7,42.6,27.93,WSW,248,2.0,2.0,96,0.00,,---,0.00,VWS V14.01,2013-01-01 11:36:00,
2013-01-01 06:41:00,43.7,42.6,27.93,West,270,0.0,0.0,96,0.00,,---,0.00,VWS V14.01,2013-01-01 11:41:00,
2013-01-01 06:46:00,43.7,42.9,27.93,SW,225,1.1,1.1,97,0.00,,---,0.00,VWS V14.01,2013-01-01 11:46:00,
2013-01-01 06:51:00,43.9,43.1,27.93,WSW,248,0.0,0.0,97,0.00,,---,0.00,VWS V14.01,2013-01-01 11:51:00,
2013-01-01 06:56:00,43.9,43.1,27.93,WSW,248,0.0,0.0,97,0.00,,---,0.00,VWS V14.01,2013-01-01 11:56:00,
2013-01-01 07:01:00,43.9,43.1,27.93,South,180,0.0,0.0,97,0.00,,---,0.00,VWS V14.01,2013-01-01 12:01:00,
2013-01-01 07:06:00,43.9,43.1,27.93,SE,135,0.0,1.6,97,0.00,,---,0.00,VWS V14.01,2013-01-01 12:06:00,
2013-01-01 07:11:00,43.9,43.1,27.93,SSW,202,0.0,0.0,97,0.00,,---,0.00,VWS V14.01,2013-01-01 12:11:00,
2013-01-01 07:16:00,43.9,43.1,27.93,East,90,0.0,0.0,97,0.00,,---,0.00,VWS V14.01,2013-01-01 12:16:00,
2013-01-01 07:21:00,43.9,43.1,27.93,South,180,0.0,0.0,97,0.00,,---,0.00,VWS V14.01,2013-01-01 12:21:00,
2013-01-01 07:26:00,43.7,42.9,27.93,SSE,158,0.0,0.0,97,0.00,,---,0.00,VWS V14.01,2013-01-01 12:26:00,
2013-01-01 07:31:00,43.7,42.9,27.93,WSW,248,0.0,0.0,97,0.00,,---,0.00,VWS V14.01,2013-01-01 12:31:00,
2013-01-01 07:36:00,43.7,42.9,27.93,WSW,248,0.0,0.0,97,0.00,,---,0.00,VWS V14.01,2013-01-01 12:36:00,
2013-01-01 07:41:00,43.7,42.9,27.93,West,270,0.0,0.0,97,0.00,,---,0.00,VWS V14.01,2013-01-01 12:41:00,
2013-01-01 07:46:00,43.7,42.9,27.93,ESE,112,0.0,0.0,97,0.00,,---,0.00,VWS V14.01,2013-01-01 12:46:00,
2013-01-01 07:51:00,43.7,42.9,27.93,SSW,202,0.0,0.0,97,0.00,,---,0.00,VWS V14.01,2013-01-01 12:51:00,
2013-01-01 07:56:00,43.7,42.9,27.93,WSW,248,0.0,0.0,97,0.00,,---,0.00,VWS V14.01,2013-01-01 12:56:00,
2013-01-01 08:01:00,43.7,42.9,27.93,SSW,202,0.0,0.0,97,0.00,,---,0.00,VWS V14.01,2013-01-01 13:01:00,
2013-01-01 08:06:00,43.7,42.9,27.93,SSW,202,0.0,0.0,97,0.00,,---,0.00,VWS V14.01,2013-01-01 13:06:00,
2013-01-01 08:11:00,43.7,42.9,27.93,SSW,202,0.0,0.0,97,0.00,,---,0.00,VWS V14.01,2013-01-01 13:11:00,
2013-01-01 08:16:00,43.9,43.1,27.93,SSW,202,0.0,0.0,97,0.00,,---,0.00,VWS V14.01,2013-01-01 13:16:00,
2013-01-01 08:21:00,43.9,43.1,27.93,WNW,292,0.0,0.0,97,0.00,,---,0.00,VWS V14.01,2013-01-01 13:21:00,
2013-01-01 08:26:00,43.9,43.1,27.93,WNW,292,0.0,0.0,97,0.00,,---,0.00,VWS V14.01,2013-01-01 13:26:00,
2013-01-01 08:31:00,43.9,43.1,27.93,WNW,292,0.0,0.0,97,0.00,,---,0.00,VWS V14.01,2013-01-01 13:31:00,
2013-01-01 08:36:00,43.9,43.1,27.93,WNW,292,0.0,0.0,97,0.00,,---,0.00,VWS V14.01,2013-01-01 13:36:00,
2013-01-01 08:41:00,44.1,43.3,27.93,WNW,292,0.0,0.0,97,0.00,,---,0.00,VWS V14.01,2013-01-01 13:41:00,
2013-01-01 08:46:00,44.1,43.3,27.93,WNW,292,0.0,0.0,97,0.00,,---,0.00,VWS V14.01,2013-01-01 13:46:00,
2013-01-01 08:51:00,44.1,43.3,27.93,ESE,112,0.0,0.0,97,0.00,,---,0.00,VWS V14.01,2013-01-01 13:51:00,
2013-01-01 08:56:00,44.1,43.3,27.93,ESE,112,0.0,0.0,97,0.00,,---,0.00,VWS V14.01,2013-01-01 13:56:00,
2013-01-01 09:01:00,44.1,43.3,27.93,East,90,0.0,0.0,97,0.00,,---,0.00,VWS V14.01,2013-01-01 14:01:00,
2013-01-01 09:06:00,43.9,43.1,27.93,North,0,0.0,0.0,97,0.00,,---,0.00,VWS V14.01,2013-01-01 14:06:00,
2013-01-01 09:11:00,43.9,43.1,27.93,ENE,68,2.0,2.0,97,0.00,,---,0.00,VWS V14.01,2013-01-01 14:11:00,
2013-01-01 09:16:00,43.9,43.1,27.93,ENE,68,0.0,0.0,97,0.00,,---,0.00,VWS V14.01,2013-01-01 14:16:00,
2013-01-01 09:22:00,43.9,43.1,27.90,ENE,68,0.0,0.0,97,0.00,,---,0.00,VWS V14.01,2013-01-01 14:22:00,
2013-01-01 09:27:00,43.9,43.1,27.90,North,0,0.0,0.0,97,0.00,,---,0.00,VWS V14.01,2013-01-01 14:27:00,
2013-01-01 09:32:00,44.1,43.3,27.90,East,90,0.0,0.9,97,0.00,,---,0.00,VWS V14.01,2013-01-01 14:32:00,
2013-01-01 09:37:00,44.2,43.7,27.90,SSE,158,0.0,0.0,98,0.00,,---,0.00,VWS V14.01,2013-01-01 14:37:00,
2013-01-01 09:42:00,44.4,43.9,27.90,East,90,0.0,0.0,98,0.00,,---,0.00,VWS V14.01,2013-01-01 14:42:00,
2013-01-01 09:47:00,44.4,43.9,27.90,East,90,0.0,0.0,98,0.00,,---,0.00,VWS V14.01,2013-01-01 14:47:00,
2013-01-01 09:52:00,44.8,44.0,27.90,East,90,0.0,0.0,97,0.00,,---,0.00,VWS V14.01,2013-01-01 14:52:00,
2013-01-01 09:57:00,44.8,44.0,27.90,SE,135,0.0,0.0,97,0.00,,---,0.00,VWS V14.01,2013-01-01 14:57:00,
2013-01-01 10:02:00,44.8,44.0,27.90,SE,135,0.0,0.0,97,0.00,,---,0.00,VWS V14.01,2013-01-01 15:02:00,
2013-01-01 10:07:00,44.8,44.0,27.93,SE,135,0.0,1.1,97,0.00,,---,0.00,VWS V14.01,2013-01-01 15:07:00,
2013-01-01 10:12:00,44.6,43.8,27.93,ESE,112,1.1,1.6,97,0.00,,---,0.00,VWS V14.01,2013-01-01 15:12:00,
2013-01-01 10:17:00,44.4,43.6,27.93,ESE,112,0.0,0.9,97,0.00,,---,0.00,VWS V14.01,2013-01-01 15:17:00,
2013-01-01 10:22:00,44.4,43.6,27.90,ESE,112,0.0,0.0,97,0.00,,---,0.00,VWS V14.01,2013-01-01 15:22:00,
2013-01-01 10:27:00,44.2,43.4,27.90,ESE,112,0.0,0.0,97,0.00,,---,0.00,VWS V14.01,2013-01-01 15:27:00,
2013-01-01 10:32:00,44.2,43.7,27.93,East,90,0.0,0.0,98,0.00,,---,0.00,VWS V14.01,2013-01-01 15:32:00,
2013-01-01 10:37:00,44.2,43.7,27.93,North,0,0.0,0.0,98,0.00,,---,0.00,VWS V14.01,2013-01-01 15:37:00,
2013-01-01 10:42:00,44.4,43.9,27.93,East,90,0.0,0.0,98,0.00,,---,0.00,VWS V14.01,2013-01-01 15:42:00,
2013-01-01 10:47:00,44.4,43.9,27.93,East,90,0.0,0.0,98,0.00,,---,0.00,VWS V14.01,2013-01-01 15:47:00,
2013-01-01 10:52:00,44.4,43.9,27.93,East,90,0.0,0.0,98,0.00,,---,0.00,VWS V14.01,2013-01-01 15:52:00,
2013-01-01 10:57:00,44.2,43.7,27.93,ENE,68,0.0,0.0,98,0.00,,---,0.00,VWS V14.01,2013-01-01 15:57:00,
2013-01-01 11:02:00,44.2,43.7,27.90,East,90,0.0,0.0,98,0.00,,---,0.00,VWS V14.01,2013-01-01 16:02:00,
2013-01-01 11:07:00,44.2,43.7,27.90,East,90,0.0,0.0,98,0.00,,---,0.00,VWS V14.01,2013-01-01 16:07:00,
2013-01-01 11:12:00,44.4,43.9,27.90,South,180,0.0,0.0,98,0.00,,---,0.00,VWS V14.01,2013-01-01 16:12:00,
2013-01-01 11:17:00,44.6,43.8,27.90,NW,315,0.0,0.0,97,0.00,,---,0.00,VWS V14.01,2013-01-01 16:17:00,
2013-01-01 11:22:00,45.0,44.2,27.90,NW,315,0.0,0.0,97,0.00,,---,0.00,VWS V14.01,2013-01-01 16:22:00,
2013-01-01 11:28:00,45.1,44.3,27.90,NW,315,0.0,0.0,97,0.00,,---,0.00,VWS V14.01,2013-01-01 16:28:00,
2013-01-01 11:33:00,45.1,44.3,27.93,NE,45,0.0,0.0,97,0.00,,---,0.00,VWS V14.01,2013-01-01 16:33:00,
2013-01-01 11:38:00,45.3,44.5,27.93,NE,45,0.0,0.0,97,0.00,,---,0.00,VWS V14.01,2013-01-01 16:38:00,
2013-01-01 11:43:00,45.3,44.5,27.93,NE,45,0.0,0.0,97,0.00,,---,0.00,VWS V14.01,2013-01-01 16:43:00,
2013-01-01 11:48:00,45.3,44.5,27.90,NE,45,0.0,0.0,97,0.00,,---,0.00,VWS V14.01,2013-01-01 16:48:00,
2013-01-01 11:53:00,45.3,44.5,27.90,East,90,0.0,0.0,97,0.00,,---,0.00,VWS V14.01,2013-01-01 16:53:00,
2013-01-01 11:58:00,45.5,44.7,27.90,ENE,68,0.0,0.0,97,0.00,,---,0.00,VWS V14.01,2013-01-01 16:58:00,
2013-01-01 12:03:00,45.5,44.7,27.90,East,90,0.0,0.0,97,0.00,,---,0.00,VWS V14.01,2013-01-01 17:03:00,
2013-01-01 12:08:00,45.7,45.2,27.90,East,90,0.0,0.0,98,0.00,,---,0.00,VWS V14.01,2013-01-01 17:08:00,
2013-01-01 12:13:00,45.9,45.3,27.90,WNW,292,0.0,0.0,98,0.00,,---,0.00,VWS V14.01,2013-01-01 17:13:00,
2013-01-01 12:19:00,46.0,45.5,27.90,WNW,292,0.0,0.0,98,0.00,,---,0.00,VWS V14.01,2013-01-01 17:19:00,
2013-01-01 12:24:00,46.4,45.9,27.90,SSE,158,0.0,0.0,98,0.00,,---,0.00,VWS V14.01,2013-01-01 17:24:00,
2013-01-01 12:29:00,46.6,46.0,27.90,East,90,0.0,0.0,98,0.00,,---,0.00,VWS V14.01,2013-01-01 17:29:00,
2013-01-01 12:34:00,46.8,46.2,27.90,SSW,202,0.0,0.0,98,0.00,,---,0.00,VWS V14.01,2013-01-01 17:34:00,
2013-01-01 12:39:00,46.9,46.4,27.90,SSW,202,0.0,0.0,98,0.00,,---,0.00,VWS V14.01,2013-01-01 17:39:00,
2013-01-01 12:44:00,46.9,46.4,27.90,WSW,248,0.0,0.0,98,0.00,,---,0.00,VWS V14.01,2013-01-01 17:44:00,
2013-01-01 12:49:00,47.1,46.6,27.90,WSW,248,0.0,0.0,98,0.00,,---,0.00,VWS V14.01,2013-01-01 17:49:00,
2013-01-01 12:54:00,47.1,46.6,27.90,WSW,248,0.0,0.0,98,0.00,,---,0.00,VWS V14.01,2013-01-01 17:54:00,
2013-01-01 12:59:00,47.1,46.6,27.90,East,90,0.0,0.0,98,0.00,,---,0.00,VWS V14.01,2013-01-01 17:59:00,
2013-01-01 13:04:00,47.3,46.8,27.88,ESE,112,0.0,0.0,98,0.00,,---,0.00,VWS V14.01,2013-01-01 18:04:00,
2013-01-01 13:09:00,47.5,47.0,27.88,SE,135,0.0,0.0,98,0.00,,---,0.00,VWS V14.01,2013-01-01 18:09:00,
2013-01-01 13:14:00,47.5,47.0,27.88,SE,135,0.0,0.0,98,0.00,,---,0.00,VWS V14.01,2013-01-01 18:14:00,
2013-01-01 13:19:00,47.7,47.1,27.88,East,90,0.0,0.0,98,0.00,,---,0.00,VWS V14.01,2013-01-01 18:19:00,
2013-01-01 13:24:00,47.7,47.1,27.88,East,90,0.0,0.0,98,0.00,,---,0.00,VWS V14.01,2013-01-01 18:24:00,
2013-01-01 13:29:00,47.8,47.3,27.88,East,90,0.0,0.0,98,0.00,,---,0.00,VWS V14.01,2013-01-01 18:29:00,
2013-01-01 13:34:00,48.0,47.5,27.88,ESE,112,0.0,0.0,98,0.00,,---,0.00,VWS V14.01,2013-01-01 18:34:00,
2013-01-01 13:39:00,48.2,47.7,27.88,SSE,158,0.9,0.9,98,0.00,,---,0.00,VWS V14.01,2013-01-01 18:39:00,
2013-01-01 13:44:00,48.2,47.7,27.88,East,90,0.0,0.0,98,0.00,,---,0.00,VWS V14.01,2013-01-01 18:44:00,
2013-01-01 13:49:00,48.4,47.8,27.85,East,90,0.0,0.0,98,0.00,,---,0.00,VWS V14.01,2013-01-01 18:49:00,
2013-01-01 13:54:00,48.6,48.0,27.85,South,180,0.0,0.9,98,0.00,,---,0.00,VWS V14.01,2013-01-01 18:54:00,
2013-01-01 13:59:00,48.6,48.0,27.85,South,180,0.0,0.0,98,0.00,,---,0.00,VWS V14.01,2013-01-01 18:59:00,
2013-01-01 14:04:00,48.6,48.0,27.85,SSW,202,0.0,0.0,98,0.00,,---,0.00,VWS V14.01,2013-01-01 19:04:00,
2013-01-01 14:09:00,48.6,48.0,27.85,SE,135,0.0,0.0,98,0.00,,---,0.00,VWS V14.01,2013-01-01 19:09:00,
2013-01-01 14:14:00,48.7,48.2,27.85,SE,135,0.0,1.3,98,0.00,,---,0.00,VWS V14.01,2013-01-01 19:14:00,
2013-01-01 14:19:00,48.7,48.2,27.85,WSW,248,0.0,0.0,98,0.00,,---,0.00,VWS V14.01,2013-01-01 19:19:00,
2013-01-01 14:24:00,48.7,48.2,27.85,WSW,248,0.0,0.0,98,0.00,,---,0.00,VWS V14.01,2013-01-01 19:24:00,
2013-01-01 14:29:00,48.7,48.2,27.85,WSW,248,0.0,0.0,98,0.00,,---,0.00,VWS V14.01,2013-01-01 19:29:00,
2013-01-01 14:34:00,48.7,48.2,27.85,WSW,248,0.0,0.0,98,0.00,,---,0.00,VWS V14.01,2013-01-01 19:34:00,
2013-01-01 14:39:00,48.7,48.2,27.85,SSW,202,0.0,0.0,98,0.00,,---,0.00,VWS V14.01,2013-01-01 19:39:00,
2013-01-01 14:44:00,48.7,48.2,27.85,West,270,0.0,0.0,98,0.00,,---,0.00,VWS V14.01,2013-01-01 19:44:00,
2013-01-01 14:49:00,48.7,48.2,27.85,SSE,158,0.0,0.0,98,0.00,,---,0.00,VWS V14.01,2013-01-01 19:49:00,
2013-01-01 14:54:00,48.7,48.2,27.85,SSE,158,0.0,0.0,98,0.00,,---,0.00,VWS V14.01,2013-01-01 19:54:00,
2013-01-01 14:59:00,48.7,48.2,27.85,WSW,248,0.0,0.9,98,0.00,,---,0.00,VWS V14.01,2013-01-01 19:59:00,
2013-01-01 15:04:00,48.7,48.2,27.85,East,90,0.0,0.0,98,0.00,,---,0.00,VWS V14.01,2013-01-01 20:04:00,
2013-01-01 15:09:00,48.7,48.2,27.85,West,270,0.0,0.0,98,0.00,,---,0.00,VWS V14.01,2013-01-01 20:09:00,
2013-01-01 15:14:00,48.9,48.4,27.85,WSW,248,0.0,0.0,98,0.00,,---,0.00,VWS V14.01,2013-01-01 20:14:00,
2013-01-01 15:19:00,48.9,48.4,27.85,WNW,292,0.0,0.0,98,0.00,,---,0.00,VWS V14.01,2013-01-01 20:19:00,
2013-01-01 15:24:00,49.1,48.6,27.85,WNW,292,0.0,0.0,98,0.00,,---,0.00,VWS V14.01,2013-01-01 20:24:00,
2013-01-01 15:29:00,49.1,48.6,27.85,WNW,292,0.0,0.0,98,0.00,,---,0.00,VWS V14.01,2013-01-01 20:29:00,
2013-01-01 15:34:00,49.3,48.7,27.85,West,270,0.0,0.0,98,0.00,,---,0.00,VWS V14.01,2013-01-01 20:34:00,
2013-01-01 15:39:00,49.1,48.6,27.85,West,270,0.0,0.0,98,0.00,,---,0.00,VWS V14.01,2013-01-01 20:39:00,
2013-01-01 15:44:00,49.1,48.6,27.85,ESE,112,0.0,0.0,98,0.00,,---,0.00,VWS V14.01,2013-01-01 20:44:00,
2013-01-01 15:49:00,49.1,48.6,27.85,NE,45,0.0,0.0,98,0.00,,---,0.00,VWS V14.01,2013-01-01 20:49:00,
2013-01-01 15:54:00,49.1,48.6,27.85,North,0,0.0,0.0,98,0.00,,---,0.00,VWS V14.01,2013-01-01 20:54:00,
2013-01-01 15:59:00,49.1,48.6,27.85,North,0,0.0,0.0,98,0.00,,---,0.00,VWS V14.01,2013-01-01 20:59:00,
2013-01-01 16:04:00,49.1,48.6,27.85,North,0,0.0,0.0,98,0.00,,---,0.00,VWS V14.01,2013-01-01 21:04:00,
2013-01-01 16:09:00,49.1,48.6,27.85,North,0,0.0,0.0,98,0.00,,---,0.00,VWS V14.01,2013-01-01 21:09:00,
2013-01-01 16:14:00,49.1,48.6,27.85,North,0,0.0,0.0,98,0.00,,---,0.00,VWS V14.01,2013-01-01 21:14:00,
2013-01-01 16:19:00,49.1,48.6,27.88,NE,45,0.0,0.0,98,0.00,,---,0.00,VWS V14.01,2013-01-01 21:19:00,
2013-01-01 16:24:00,49.1,48.6,27.88,East,90,0.0,0.0,98,0.00,,---,0.00,VWS V14.01,2013-01-01 21:24:00,
2013-01-01 16:29:00,49.1,48.6,27.88,East,90,0.0,0.0,98,0.00,,---,0.00,VWS V14.01,2013-01-01 21:29:00,
2013-01-01 16:34:00,48.9,48.4,27.85,SW,225,0.0,0.0,98,0.00,,---,0.00,VWS V14.01,2013-01-01 21:34:00,
2013-01-01 16:39:00,48.9,48.4,27.85,WNW,292,0.0,0.0,98,0.00,,---,0.00,VWS V14.01,2013-01-01 21:39:00,
2013-01-01 16:45:00,49.1,48.6,27.85,North,0,0.0,0.0,98,0.00,,---,0.00,VWS V14.01,2013-01-01 21:45:00,
2013-01-01 16:50:00,49.1,48.6,27.88,NNE,22,0.0,0.0,98,0.00,,---,0.00,VWS V14.01,2013-01-01 21:50:00,
2013-01-01 16:55:00,48.9,48.4,27.88,SSW,202,0.0,0.0,98,0.00,,---,0.00,VWS V14.01,2013-01-01 21:55:00,
2013-01-01 17:00:00,48.9,48.4,27.88,SSE,158,0.0,0.0,98,0.00,,---,0.00,VWS V14.01,2013-01-01 22:00:00,
2013-01-01 17:05:00,48.9,48.4,27.85,NE,45,0.0,0.0,98,0.00,,---,0.00,VWS V14.01,2013-01-01 22:05:00,
2013-01-01 17:10:00,48.7,48.2,27.85,SSW,202,0.0,0.0,98,0.00,,---,0.00,VWS V14.01,2013-01-01 22:10:00,
2013-01-01 17:15:00,48.7,48.2,27.85,WSW,248,0.0,0.0,98,0.00,,---,0.00,VWS V14.01,2013-01-01 22:15:00,
2013-01-01 17:20:00,48.7,48.2,27.85,WSW,248,0.0,0.0,98,0.00,,---,0.00,VWS V14.01,2013-01-01 22:20:00,
2013-01-01 17:25:00,48.7,48.2,27.85,WSW,248,0.0,0.0,98,0.00,,---,0.00,VWS V14.01,2013-01-01 22:25:00,
2013-01-01 17:30:00,48.7,48.2,27.85,WSW,248,0.0,0.0,98,0.00,,---,0.00,VWS V14.01,2013-01-01 22:30:00,
2013-01-01 17:35:00,48.6,48.0,27.85,East,90,0.0,0.0,98,0.00,,---,0.00,VWS V14.01,2013-01-01 22:35:00,
2013-01-01 17:40:00,48.6,48.0,27.85,East,90,0.0,0.0,98,0.00,,---,0.00,VWS V14.01,2013-01-01 22:40:00,
2013-01-01 17:45:00,48.4,47.8,27.85,East,90,0.0,0.0,98,0.00,,---,0.00,VWS V14.01,2013-01-01 22:45:00,
2013-01-01 17:50:00,48.4,47.8,27.85,East,90,0.0,2.5,98,0.00,,---,0.00,VWS V14.01,2013-01-01 22:50:00,
2013-01-01 17:56:00,47.8,47.3,27.85,East,90,0.0,0.0,98,0.00,,---,0.00,VWS V14.01,2013-01-01 22:56:00,
2013-01-01 18:01:00,47.5,47.0,27.85,NNE,22,0.0,0.0,98,0.00,,---,0.00,VWS V14.01,2013-01-01 23:01:00,
2013-01-01 18:06:00,47.1,46.6,27.85,NNE,22,0.0,0.0,98,0.00,,---,0.00,VWS V14.01,2013-01-01 23:06:00,
2013-01-01 18:11:00,46.9,46.1,27.85,NNE,22,0.0,0.0,97,0.00,,---,0.00,VWS V14.01,2013-01-01 23:11:00,
2013-01-01 18:16:00,46.8,46.0,27.85,ESE,112,0.0,0.0,97,0.00,,---,0.00,VWS V14.01,2013-01-01 23:16:00,
2013-01-01 18:21:00,46.2,45.7,27.88,East,90,1.1,1.1,98,0.00,,---,0.00,VWS V14.01,2013-01-01 23:21:00,
2013-01-01 18:26:00,45.9,45.1,27.88,North,0,1.1,1.1,97,0.00,,---,0.00,VWS V14.01,2013-01-01 23:26:00,
2013-01-01 18:31:00,45.3,44.5,27.88,NE,45,1.1,2.5,97,0.00,,---,0.00,VWS V14.01,2013-01-01 23:31:00,
2013-01-01 18:36:00,45.0,44.2,27.88,SSE,158,0.0,0.0,97,0.00,,---,0.00,VWS V14.01,2013-01-01 23:36:00,
2013-01-01 18:41:00,44.6,43.8,27.88,NE,45,0.0,0.0,97,0.00,,---,0.00,VWS V14.01,2013-01-01 23:41:00,
2013-01-01 18:46:00,44.2,43.4,27.88,ENE,68,0.0,1.1,97,0.00,,---,0.00,VWS V14.01,2013-01-01 23:46:00,
2013-01-01 18:51:00,44.2,43.4,27.88,East,90,0.9,0.9,97,0.00,,---,0.00,VWS V14.01,2013-01-01 23:51:00,
2013-01-01 18:56:00,44.1,43.3,27.88,WNW,292,0.0,0.0,97,0.00,,---,0.00,VWS V14.01,2013-01-01 23:56:00,
2013-01-01 19:02:00,43.9,43.1,27.88,NNW,338,0.0,1.1,97,0.00,,---,0.00,VWS V14.01,2013-01-02 00:02:00,
2013-01-01 19:07:00,43.7,42.9,27.88,WNW,292,0.0,0.0,97,0.00,,---,0.00,VWS V14.01,2013-01-02 00:07:00,
2013-01-01 19:12:00,43.7,42.9,27.88,South,180,0.0,0.0,97,0.00,,---,0.00,VWS V14.01,2013-01-02 00:12:00,
2013-01-01 19:17:00,43.7,42.9,27.88,SW,225,0.0,0.0,97,0.00,,---,0.00,VWS V14.01,2013-01-02 00:17:00,
2013-01-01 19:22:00,43.5,43.0,27.88,NE,45,0.0,0.0,98,0.00,,---,0.00,VWS V14.01,2013-01-02 00:22:00,
2013-01-01 19:27:00,43.5,42.7,27.88,ESE,112,0.0,0.9,97,0.00,,---,0.00,VWS V14.01,2013-01-02 00:27:00,
2013-01-01 19:32:00,43.5,43.0,27.88,NE,45,0.0,0.0,98,0.00,,---,0.00,VWS V14.01,2013-01-02 00:32:00,
2013-01-01 19:37:00,43.5,43.0,27.88,NNE,22,0.0,0.0,98,0.00,,---,0.00,VWS V14.01,2013-01-02 00:37:00,
2013-01-01 19:42:00,43.5,43.0,27.88,NNE,22,0.0,0.0,98,0.00,,---,0.00,VWS V14.01,2013-01-02 00:42:00,
2013-01-01 19:47:00,43.5,43.0,27.88,NNE,22,0.0,0.0,98,0.00,,---,0.00,VWS V14.01,2013-01-02 00:47:00,
2013-01-01 19:52:00,43.5,43.0,27.88,NNE,22,0.0,0.0,98,0.00,,---,0.00,VWS V14.01,2013-01-02 00:52:00,
2013-01-01 19:57:00,43.5,43.0,27.88,NNE,22,0.0,0.0,98,0.00,,---,0.00,VWS V14.01,2013-01-02 00:57:00,
2013-01-01 20:02:00,43.7,43.2,27.88,NNE,22,0.0,0.0,98,0.00,,---,0.00,VWS V14.01,2013-01-02 01:02:00,
2013-01-01 20:07:00,43.9,43.3,27.88,NNE,22,0.0,0.0,98,0.00,,---,0.00,VWS V14.01,2013-01-02 01:07:00,
2013-01-01 20:12:00,43.9,43.3,27.88,NNE,22,0.0,0.0,98,0.00,,---,0.00,VWS V14.01,2013-01-02 01:12:00,
2013-01-01 20:17:00,44.1,43.5,27.88,NNE,22,0.0,0.0,98,0.00,,---,0.00,VWS V14.01,2013-01-02 01:17:00,
2013-01-01 20:22:00,44.2,43.7,27.88,NNE,22,0.0,0.0,98,0.00,,---,0.00,VWS V14.01,2013-01-02 01:22:00,
2013-01-01 20:28:00,44.2,43.7,27.88,NNE,22,0.0,0.0,98,0.00,,---,0.00,VWS V14.01,2013-01-02 01:28:00,
2013-01-01 20:33:00,44.2,43.7,27.88,NNE,22,0.0,0.0,98,0.00,,---,0.00,VWS V14.01,2013-01-02 01:33:00,
2013-01-01 20:38:00,44.2,43.7,27.88,NNE,22,0.9,0.9,98,0.00,,---,0.00,VWS V14.01,2013-01-02 01:38:00,
2013-01-01 20:43:00,44.2,43.7,27.88,NE,45,0.0,0.0,98,0.00,,---,0.00,VWS V14.01,2013-01-02 01:43:00,
2013-01-01 20:48:00,44.4,43.9,27.88,NE,45,0.0,0.0,98,0.00,,---,0.00,VWS V14.01,2013-01-02 01:48:00,
2013-01-01 20:53:00,44.4,43.9,27.88,West,270,0.0,0.0,98,0.00,,---,0.00,VWS V14.01,2013-01-02 01:53:00,
2013-01-01 20:58:00,44.2,43.7,27.88,ENE,68,0.0,0.0,98,0.00,,---,0.00,VWS V14.01,2013-01-02 01:58:00,
2013-01-01 21:03:00,44.2,43.7,27.88,ENE,68,0.0,0.0,98,0.00,,---,0.00,VWS V14.01,2013-01-02 02:03:00,
2013-01-01 21:08:00,44.2,43.7,27.88,ENE,68,0.0,0.0,98,0.00,,---,0.00,VWS V14.01,2013-01-02 02:08:00,
2013-01-01 21:13:00,44.2,43.7,27.88,WSW,248,0.0,0.0,98,0.00,,---,0.00,VWS V14.01,2013-01-02 02:13:00,
2013-01-01 21:18:00,44.2,43.7,27.88,NNW,338,0.0,0.0,98,0.00,,---,0.00,VWS V14.01,2013-01-02 02:18:00,
2013-01-01 21:24:00,44.2,43.7,27.88,NNW,338,0.0,0.0,98,0.00,,---,0.00,VWS V14.01,2013-01-02 02:24:00,
2013-01-01 21:29:00,44.2,43.7,27.88,NNE,22,0.0,0.0,98,0.00,,---,0.00,VWS V14.01,2013-01-02 02:29:00,
2013-01-01 21:34:00,44.1,43.5,27.88,NNE,22,0.0,2.5,98,0.00,,---,0.00,VWS V14.01,2013-01-02 02:34:00,
2013-01-01 21:39:00,44.1,43.5,27.88,NE,45,0.0,0.0,98,0.00,,---,0.00,VWS V14.01,2013-01-02 02:39:00,
2013-01-01 21:44:00,44.1,43.5,27.88,NW,315,0.0,0.0,98,0.00,,---,0.00,VWS V14.01,2013-01-02 02:44:00,
2013-01-01 21:49:00,43.9,43.3,27.88,WNW,292,0.0,0.0,98,0.00,,---,0.00,VWS V14.01,2013-01-02 02:49:00,
2013-01-01 21:54:00,43.9,43.3,27.88,NW,315,0.0,0.0,98,0.00,,---,0.00,VWS V14.01,2013-01-02 02:54:00,
2013-01-01 21:59:00,43.9,43.3,27.88,NE,45,0.0,0.0,98,0.00,,---,0.00,VWS V14.01,2013-01-02 02:59:00,
2013-01-01 22:04:00,43.7,43.2,27.88,NE,45,0.0,0.0,98,0.00,,---,0.00,VWS V14.01,2013-01-02 03:04:00,
2013-01-01 22:09:00,43.7,43.2,27.88,NE,45,0.0,0.0,98,0.00,,---,0.00,VWS V14.01,2013-01-02 03:09:00,
2013-01-01 22:14:00,43.7,43.2,27.88,NE,45,0.0,0.0,98,0.00,,---,0.00,VWS V14.01,2013-01-02 03:14:00,
2013-01-01 22:20:00,43.7,43.2,27.88,NE,45,0.0,0.0,98,0.00,,---,0.00,VWS V14.01,2013-01-02 03:20:00,
2013-01-01 22:25:00,43.7,43.2,27.88,NE,45,0.0,0.0,98,0.00,,---,0.00,VWS V14.01,2013-01-02 03:25:00,
2013-01-01 22:30:00,43.5,43.0,27.88,NE,45,0.0,0.0,98,0.00,,---,0.00,VWS V14.01,2013-01-02 03:30:00,
2013-01-01 22:35:00,43.5,43.0,27.88,NE,45,0.0,0.0,98,0.00,,---,0.00,VWS V14.01,2013-01-02 03:35:00,
2013-01-01 22:40:00,43.5,43.0,27.88,NE,45,0.0,0.0,98,0.00,,---,0.00,VWS V14.01,2013-01-02 03:40:00,
2013-01-01 22:45:00,43.5,43.0,27.88,NE,45,0.0,0.0,98,0.00,,---,0.00,VWS V14.01,2013-01-02 03:45:00,
2013-01-01 22:50:00,43.5,43.0,27.88,ENE,68,1.3,1.3,98,0.00,,---,0.00,VWS V14.01,2013-01-02 03:50:00,
2013-01-01 22:55:00,43.3,42.8,27.88,NW,315,0.0,0.0,98,0.00,,---,0.00,VWS V14.01,2013-01-02 03:55:00,
2013-01-01 23:00:00,43.3,42.8,27.88,NE,45,0.0,1.1,98,0.00,,---,0.00,VWS V14.01,2013-01-02 04:00:00,
2013-01-01 23:05:00,43.3,42.8,27.88,East,90,1.3,2.0,98,0.00,,---,0.00,VWS V14.01,2013-01-02 04:05:00,
2013-01-01 23:10:00,42.8,42.0,27.88,ENE,68,2.7,2.7,97,0.00,,---,0.00,VWS V14.01,2013-01-02 04:10:00,
2013-01-01 23:15:00,42.6,42.1,27.88,SE,135,0.0,0.9,98,0.00,,---,0.00,VWS V14.01,2013-01-02 04:15:00,
2013-01-01 23:20:00,42.1,41.6,27.88,NNE,22,0.0,1.6,98,0.00,,---,0.00,VWS V14.01,2013-01-02 04:20:00,
2013-01-01 23:25:00,41.7,41.2,27.88,East,90,2.5,2.5,98,0.00,,---,0.00,VWS V14.01,2013-01-02 04:25:00,
2013-01-01 23:30:00,40.8,40.3,27.88,SSE,158,4.0,4.0,98,0.00,,---,0.00,VWS V14.01,2013-01-02 04:30:00,
2013-01-01 23:35:00,40.5,39.9,27.88,NE,45,0.9,3.4,98,0.00,,---,0.00,VWS V14.01,2013-01-02 04:35:00,
2013-01-01 23:41:00,39.7,39.2,27.88,ESE,112,3.1,4.0,98,0.00,,---,0.00,VWS V14.01,2013-01-02 04:41:00,
2013-01-01 23:46:00,39.2,38.4,27.88,East,90,1.1,1.1,97,0.00,,---,0.00,VWS V14.01,2013-01-02 04:46:00,
2013-01-01 23:51:00,38.7,38.2,27.88,WNW,292,3.8,3.8,98,0.00,,---,0.00,VWS V14.01,2013-01-02 04:51:00,
2013-01-01 23:56:00,38.1,37.6,27.88,NNE,22,2.5,2.5,98,0.00,,---,0.00,VWS V14.01,2013-01-02 04:56:00,